sensor_id;sensor_type;location;lat;lon;timestamp;P1;durP1;ratioP1;P2;durP2;ratioP2
10201;SDS011;5143;42.584;23.164;2022-07-29T00:01:14;5.77;;;5.03;;
10201;SDS011;5143;42.584;23.164;2022-07-29T00:03:41;7.30;;;6.00;;
10201;SDS011;5143;42.584;23.164;2022-07-29T00:06:08;5.93;;;5.00;;
10201;SDS011;5143;42.584;23.164;2022-07-29T00:08:35;12.17;;;5.40;;
10201;SDS011;5143;42.584;23.164;2022-07-29T00:11:02;6.00;;;5.40;;
10201;SDS011;5143;42.584;23.164;2022-07-29T00:13:30;9.30;;;5.67;;
10201;SDS011;5143;42.584;23.164;2022-07-29T00:15:57;5.47;;;4.93;;
10201;SDS011;5143;42.584;23.164;2022-07-29T00:18:24;5.33;;;4.83;;
10201;SDS011;5143;42.584;23.164;2022-07-29T00:20:51;7.13;;;5.07;;
10201;SDS011;5143;42.584;23.164;2022-07-29T00:23:17;7.30;;;4.70;;
10201;SDS011;5143;42.584;23.164;2022-07-29T00:25:44;11.37;;;5.00;;
10201;SDS011;5143;42.584;23.164;2022-07-29T00:28:11;5.70;;;5.10;;
10201;SDS011;5143;42.584;23.164;2022-07-29T00:30:39;8.03;;;5.70;;
10201;SDS011;5143;42.584;23.164;2022-07-29T00:33:08;11.83;;;5.87;;
10201;SDS011;5143;42.584;23.164;2022-07-29T00:35:34;11.03;;;6.30;;
10201;SDS011;5143;42.584;23.164;2022-07-29T00:38:09;6.73;;;5.33;;
10201;SDS011;5143;42.584;23.164;2022-07-29T00:40:37;9.60;;;5.70;;
10201;SDS011;5143;42.584;23.164;2022-07-29T00:43:04;9.03;;;6.57;;
10201;SDS011;5143;42.584;23.164;2022-07-29T00:45:31;10.67;;;6.03;;
10201;SDS011;5143;42.584;23.164;2022-07-29T00:47:59;7.67;;;6.03;;
10201;SDS011;5143;42.584;23.164;2022-07-29T00:50:26;8.70;;;6.23;;
10201;SDS011;5143;42.584;23.164;2022-07-29T00:52:53;10.30;;;6.00;;
10201;SDS011;5143;42.584;23.164;2022-07-29T00:55:20;8.60;;;5.73;;
10201;SDS011;5143;42.584;23.164;2022-07-29T00:57:47;6.50;;;5.83;;
10201;SDS011;5143;42.584;23.164;2022-07-29T01:00:14;6.27;;;5.67;;
10201;SDS011;5143;42.584;23.164;2022-07-29T01:02:44;6.87;;;5.87;;
10201;SDS011;5143;42.584;23.164;2022-07-29T01:05:15;6.60;;;5.70;;
10201;SDS011;5143;42.584;23.164;2022-07-29T01:07:43;9.63;;;6.87;;
10201;SDS011;5143;42.584;23.164;2022-07-29T01:10:12;9.70;;;6.60;;
10201;SDS011;5143;42.584;23.164;2022-07-29T01:12:40;9.50;;;6.17;;
10201;SDS011;5143;42.584;23.164;2022-07-29T01:15:10;8.17;;;6.10;;
10201;SDS011;5143;42.584;23.164;2022-07-29T01:17:39;10.80;;;6.10;;
10201;SDS011;5143;42.584;23.164;2022-07-29T01:20:12;14.07;;;7.20;;
10201;SDS011;5143;42.584;23.164;2022-07-29T01:22:53;8.87;;;7.37;;
10201;SDS011;5143;42.584;23.164;2022-07-29T01:25:47;8.23;;;6.73;;
10201;SDS011;5143;42.584;23.164;2022-07-29T01:28:39;8.47;;;6.50;;
10201;SDS011;5143;42.584;23.164;2022-07-29T01:31:16;9.63;;;6.67;;
10201;SDS011;5143;42.584;23.164;2022-07-29T01:33:58;8.97;;;7.40;;
10201;SDS011;5143;42.584;23.164;2022-07-29T01:36:31;8.67;;;6.80;;
10201;SDS011;5143;42.584;23.164;2022-07-29T01:39:04;8.10;;;6.50;;
10201;SDS011;5143;42.584;23.164;2022-07-29T01:41:35;12.60;;;6.83;;
10201;SDS011;5143;42.584;23.164;2022-07-29T01:44:10;8.60;;;6.83;;
10201;SDS011;5143;42.584;23.164;2022-07-29T01:46:41;9.07;;;7.50;;
10201;SDS011;5143;42.584;23.164;2022-07-29T01:49:16;8.30;;;7.00;;
10201;SDS011;5143;42.584;23.164;2022-07-29T01:51:47;13.17;;;7.50;;
10201;SDS011;5143;42.584;23.164;2022-07-29T01:54:19;8.53;;;6.70;;
10201;SDS011;5143;42.584;23.164;2022-07-29T01:56:51;16.10;;;6.60;;
10201;SDS011;5143;42.584;23.164;2022-07-29T01:59:23;9.57;;;7.00;;
10201;SDS011;5143;42.584;23.164;2022-07-29T02:01:53;11.63;;;7.53;;
10201;SDS011;5143;42.584;23.164;2022-07-29T02:04:20;10.00;;;7.20;;
10201;SDS011;5143;42.584;23.164;2022-07-29T02:06:49;8.47;;;6.87;;
10201;SDS011;5143;42.584;23.164;2022-07-29T02:09:18;10.23;;;7.30;;
10201;SDS011;5143;42.584;23.164;2022-07-29T02:11:49;11.33;;;8.00;;
10201;SDS011;5143;42.584;23.164;2022-07-29T02:14:19;8.90;;;7.17;;
10201;SDS011;5143;42.584;23.164;2022-07-29T02:16:50;11.77;;;7.37;;
10201;SDS011;5143;42.584;23.164;2022-07-29T02:19:19;7.40;;;6.70;;
10201;SDS011;5143;42.584;23.164;2022-07-29T02:21:48;8.80;;;7.00;;
10201;SDS011;5143;42.584;23.164;2022-07-29T02:24:18;16.17;;;7.83;;
10201;SDS011;5143;42.584;23.164;2022-07-29T02:26:47;13.93;;;7.37;;
10201;SDS011;5143;42.584;23.164;2022-07-29T02:29:16;7.53;;;6.73;;
10201;SDS011;5143;42.584;23.164;2022-07-29T02:31:48;11.07;;;7.43;;
10201;SDS011;5143;42.584;23.164;2022-07-29T02:34:17;11.23;;;8.30;;
10201;SDS011;5143;42.584;23.164;2022-07-29T02:36:46;14.50;;;8.00;;
10201;SDS011;5143;42.584;23.164;2022-07-29T02:39:14;11.13;;;7.77;;
10201;SDS011;5143;42.584;23.164;2022-07-29T02:41:43;10.00;;;8.53;;
10201;SDS011;5143;42.584;23.164;2022-07-29T02:44:12;9.97;;;8.97;;
10201;SDS011;5143;42.584;23.164;2022-07-29T02:46:42;9.10;;;8.23;;
10201;SDS011;5143;42.584;23.164;2022-07-29T02:49:15;11.77;;;8.07;;
10201;SDS011;5143;42.584;23.164;2022-07-29T02:51:51;10.03;;;7.80;;
10201;SDS011;5143;42.584;23.164;2022-07-29T02:54:26;17.47;;;8.10;;
10201;SDS011;5143;42.584;23.164;2022-07-29T02:56:58;11.73;;;7.37;;
10201;SDS011;5143;42.584;23.164;2022-07-29T02:59:28;8.97;;;7.13;;
10201;SDS011;5143;42.584;23.164;2022-07-29T03:02:00;10.83;;;7.27;;
10201;SDS011;5143;42.584;23.164;2022-07-29T03:04:32;8.70;;;6.33;;
10201;SDS011;5143;42.584;23.164;2022-07-29T03:07:01;7.73;;;6.40;;
10201;SDS011;5143;42.584;23.164;2022-07-29T03:09:29;8.63;;;6.93;;
10201;SDS011;5143;42.584;23.164;2022-07-29T03:11:56;15.67;;;7.50;;
10201;SDS011;5143;42.584;23.164;2022-07-29T03:14:24;12.77;;;7.73;;
10201;SDS011;5143;42.584;23.164;2022-07-29T03:16:51;8.20;;;6.93;;
10201;SDS011;5143;42.584;23.164;2022-07-29T03:19:19;9.73;;;7.90;;
10201;SDS011;5143;42.584;23.164;2022-07-29T03:21:47;10.83;;;7.90;;
10201;SDS011;5143;42.584;23.164;2022-07-29T03:24:24;14.33;;;7.63;;
10201;SDS011;5143;42.584;23.164;2022-07-29T03:26:51;10.73;;;7.47;;
10201;SDS011;5143;42.584;23.164;2022-07-29T03:29:18;9.03;;;7.17;;
10201;SDS011;5143;42.584;23.164;2022-07-29T03:31:45;8.57;;;7.13;;
10201;SDS011;5143;42.584;23.164;2022-07-29T03:34:12;9.47;;;8.30;;
10201;SDS011;5143;42.584;23.164;2022-07-29T03:36:39;16.90;;;8.53;;
10201;SDS011;5143;42.584;23.164;2022-07-29T03:39:07;12.23;;;8.17;;
10201;SDS011;5143;42.584;23.164;2022-07-29T03:41:35;13.53;;;8.67;;
10201;SDS011;5143;42.584;23.164;2022-07-29T03:44:03;15.17;;;8.17;;
10201;SDS011;5143;42.584;23.164;2022-07-29T03:46:32;12.30;;;7.80;;
10201;SDS011;5143;42.584;23.164;2022-07-29T03:49:02;12.20;;;9.10;;
10201;SDS011;5143;42.584;23.164;2022-07-29T03:51:30;12.83;;;8.87;;
10201;SDS011;5143;42.584;23.164;2022-07-29T03:53:57;12.03;;;7.93;;
10201;SDS011;5143;42.584;23.164;2022-07-29T03:56:26;10.30;;;7.70;;
10201;SDS011;5143;42.584;23.164;2022-07-29T03:58:54;14.93;;;6.93;;
10201;SDS011;5143;42.584;23.164;2022-07-29T04:01:21;7.07;;;6.37;;
10201;SDS011;5143;42.584;23.164;2022-07-29T04:03:50;10.53;;;6.17;;
10201;SDS011;5143;42.584;23.164;2022-07-29T04:06:17;6.17;;;5.57;;
10201;SDS011;5143;42.584;23.164;2022-07-29T04:08:44;7.00;;;6.07;;
10201;SDS011;5143;42.584;23.164;2022-07-29T04:11:11;8.63;;;6.67;;
10201;SDS011;5143;42.584;23.164;2022-07-29T04:13:40;14.63;;;6.60;;
10201;SDS011;5143;42.584;23.164;2022-07-29T04:16:07;7.10;;;5.87;;
10201;SDS011;5143;42.584;23.164;2022-07-29T04:18:33;6.57;;;5.60;;
10201;SDS011;5143;42.584;23.164;2022-07-29T04:21:00;9.47;;;5.90;;
10201;SDS011;5143;42.584;23.164;2022-07-29T04:23:29;10.03;;;6.00;;
10201;SDS011;5143;42.584;23.164;2022-07-29T04:25:57;8.53;;;5.80;;
10201;SDS011;5143;42.584;23.164;2022-07-29T04:28:25;12.70;;;5.87;;
10201;SDS011;5143;42.584;23.164;2022-07-29T04:30:53;12.33;;;5.80;;
10201;SDS011;5143;42.584;23.164;2022-07-29T04:33:20;11.00;;;5.73;;
10201;SDS011;5143;42.584;23.164;2022-07-29T04:35:47;7.63;;;5.57;;
10201;SDS011;5143;42.584;23.164;2022-07-29T04:38:13;15.93;;;6.70;;
10201;SDS011;5143;42.584;23.164;2022-07-29T04:40:40;12.50;;;6.33;;
10201;SDS011;5143;42.584;23.164;2022-07-29T04:43:07;10.03;;;6.07;;
10201;SDS011;5143;42.584;23.164;2022-07-29T04:45:34;12.00;;;5.70;;
10201;SDS011;5143;42.584;23.164;2022-07-29T04:48:02;8.20;;;5.03;;
10201;SDS011;5143;42.584;23.164;2022-07-29T04:50:29;6.60;;;4.67;;
10201;SDS011;5143;42.584;23.164;2022-07-29T04:52:56;6.50;;;4.50;;
10201;SDS011;5143;42.584;23.164;2022-07-29T04:55:23;8.87;;;4.60;;
10201;SDS011;5143;42.584;23.164;2022-07-29T04:57:50;8.73;;;4.60;;
10201;SDS011;5143;42.584;23.164;2022-07-29T05:00:17;8.13;;;4.23;;
10201;SDS011;5143;42.584;23.164;2022-07-29T05:02:43;5.57;;;4.00;;
10201;SDS011;5143;42.584;23.164;2022-07-29T05:05:12;5.57;;;4.30;;
10201;SDS011;5143;42.584;23.164;2022-07-29T05:07:38;9.15;;;5.78;;
10201;SDS011;5143;42.584;23.164;2022-07-29T05:10:05;18.10;;;5.28;;
10201;SDS011;5143;42.584;23.164;2022-07-29T05:12:33;7.97;;;5.22;;
10201;SDS011;5143;42.584;23.164;2022-07-29T05:14:59;12.32;;;4.50;;
10201;SDS011;5143;42.584;23.164;2022-07-29T05:17:26;7.68;;;4.75;;
10201;SDS011;5143;42.584;23.164;2022-07-29T05:19:53;11.85;;;5.50;;
10201;SDS011;5143;42.584;23.164;2022-07-29T05:22:21;8.77;;;5.15;;
10201;SDS011;5143;42.584;23.164;2022-07-29T05:24:48;6.88;;;4.25;;
10201;SDS011;5143;42.584;23.164;2022-07-29T05:27:15;12.98;;;5.40;;
10201;SDS011;5143;42.584;23.164;2022-07-29T05:29:41;8.82;;;5.90;;
10201;SDS011;5143;42.584;23.164;2022-07-29T05:32:09;6.70;;;5.35;;
10201;SDS011;5143;42.584;23.164;2022-07-29T05:34:36;9.40;;;5.97;;
10201;SDS011;5143;42.584;23.164;2022-07-29T05:37:03;10.00;;;6.07;;
10201;SDS011;5143;42.584;23.164;2022-07-29T05:39:31;8.30;;;5.45;;
10201;SDS011;5143;42.584;23.164;2022-07-29T05:41:58;14.27;;;7.55;;
10201;SDS011;5143;42.584;23.164;2022-07-29T05:44:25;10.27;;;5.78;;
10201;SDS011;5143;42.584;23.164;2022-07-29T05:46:52;11.15;;;6.20;;
10201;SDS011;5143;42.584;23.164;2022-07-29T05:49:18;8.73;;;5.88;;
10201;SDS011;5143;42.584;23.164;2022-07-29T05:51:45;9.10;;;5.55;;
10201;SDS011;5143;42.584;23.164;2022-07-29T05:54:13;8.35;;;5.43;;
10201;SDS011;5143;42.584;23.164;2022-07-29T05:56:42;16.05;;;6.82;;
10201;SDS011;5143;42.584;23.164;2022-07-29T05:59:08;14.18;;;7.85;;
10201;SDS011;5143;42.584;23.164;2022-07-29T06:01:35;11.20;;;7.10;;
10201;SDS011;5143;42.584;23.164;2022-07-29T06:04:04;13.80;;;6.85;;
10201;SDS011;5143;42.584;23.164;2022-07-29T06:06:31;15.43;;;6.90;;
10201;SDS011;5143;42.584;23.164;2022-07-29T06:08:58;14.05;;;6.25;;
10201;SDS011;5143;42.584;23.164;2022-07-29T06:11:25;10.60;;;6.82;;
10201;SDS011;5143;42.584;23.164;2022-07-29T06:13:53;14.30;;;6.93;;
10201;SDS011;5143;42.584;23.164;2022-07-29T06:16:20;12.32;;;7.70;;
10201;SDS011;5143;42.584;23.164;2022-07-29T06:18:47;10.45;;;8.52;;
10201;SDS011;5143;42.584;23.164;2022-07-29T06:21:13;16.40;;;11.10;;
10201;SDS011;5143;42.584;23.164;2022-07-29T06:23:40;11.60;;;7.07;;
10201;SDS011;5143;42.584;23.164;2022-07-29T06:26:07;9.95;;;7.18;;
10201;SDS011;5143;42.584;23.164;2022-07-29T06:28:34;10.63;;;6.47;;
10201;SDS011;5143;42.584;23.164;2022-07-29T06:31:02;10.38;;;6.70;;
10201;SDS011;5143;42.584;23.164;2022-07-29T06:33:29;7.05;;;5.63;;
10201;SDS011;5143;42.584;23.164;2022-07-29T06:35:56;10.88;;;5.90;;
10201;SDS011;5143;42.584;23.164;2022-07-29T06:38:23;8.80;;;6.35;;
10201;SDS011;5143;42.584;23.164;2022-07-29T06:40:49;8.48;;;5.45;;
10201;SDS011;5143;42.584;23.164;2022-07-29T06:43:30;11.70;;;7.43;;
10201;SDS011;5143;42.584;23.164;2022-07-29T06:46:02;17.95;;;9.93;;
10201;SDS011;5143;42.584;23.164;2022-07-29T06:48:30;9.98;;;6.32;;
10201;SDS011;5143;42.584;23.164;2022-07-29T06:50:58;10.93;;;7.68;;
10201;SDS011;5143;42.584;23.164;2022-07-29T06:53:25;13.05;;;6.45;;
10201;SDS011;5143;42.584;23.164;2022-07-29T06:55:53;13.25;;;7.93;;
10201;SDS011;5143;42.584;23.164;2022-07-29T06:58:20;8.65;;;5.80;;
10201;SDS011;5143;42.584;23.164;2022-07-29T07:00:47;7.93;;;5.20;;
10201;SDS011;5143;42.584;23.164;2022-07-29T07:03:15;4.45;;;3.75;;
10201;SDS011;5143;42.584;23.164;2022-07-29T07:05:43;8.65;;;6.95;;
10201;SDS011;5143;42.584;23.164;2022-07-29T07:08:10;4.85;;;3.97;;
10201;SDS011;5143;42.584;23.164;2022-07-29T07:10:37;8.95;;;4.93;;
10201;SDS011;5143;42.584;23.164;2022-07-29T07:13:04;7.10;;;4.43;;
10201;SDS011;5143;42.584;23.164;2022-07-29T07:15:32;7.63;;;4.57;;
10201;SDS011;5143;42.584;23.164;2022-07-29T07:17:59;7.03;;;4.43;;
10201;SDS011;5143;42.584;23.164;2022-07-29T07:20:27;8.68;;;4.72;;
10201;SDS011;5143;42.584;23.164;2022-07-29T07:22:54;15.13;;;4.93;;
10201;SDS011;5143;42.584;23.164;2022-07-29T07:25:21;5.32;;;4.10;;
10201;SDS011;5143;42.584;23.164;2022-07-29T07:27:47;9.57;;;4.72;;
10201;SDS011;5143;42.584;23.164;2022-07-29T07:30:14;5.70;;;4.40;;
10201;SDS011;5143;42.584;23.164;2022-07-29T07:32:41;9.73;;;4.68;;
10201;SDS011;5143;42.584;23.164;2022-07-29T07:35:09;11.23;;;4.60;;
10201;SDS011;5143;42.584;23.164;2022-07-29T07:37:38;7.35;;;4.00;;
10201;SDS011;5143;42.584;23.164;2022-07-29T07:40:07;9.60;;;4.38;;
10201;SDS011;5143;42.584;23.164;2022-07-29T07:42:36;5.40;;;3.67;;
10201;SDS011;5143;42.584;23.164;2022-07-29T07:45:03;5.35;;;4.22;;
10201;SDS011;5143;42.584;23.164;2022-07-29T07:47:31;6.38;;;4.53;;
10201;SDS011;5143;42.584;23.164;2022-07-29T07:49:57;7.15;;;4.07;;
10201;SDS011;5143;42.584;23.164;2022-07-29T07:52:25;8.93;;;4.18;;
10201;SDS011;5143;42.584;23.164;2022-07-29T07:54:53;6.22;;;4.03;;
10201;SDS011;5143;42.584;23.164;2022-07-29T07:57:20;6.90;;;4.20;;
10201;SDS011;5143;42.584;23.164;2022-07-29T07:59:47;7.63;;;3.80;;
10201;SDS011;5143;42.584;23.164;2022-07-29T08:02:14;5.97;;;4.10;;
10201;SDS011;5143;42.584;23.164;2022-07-29T08:04:40;6.07;;;4.30;;
10201;SDS011;5143;42.584;23.164;2022-07-29T08:07:07;6.82;;;4.13;;
10201;SDS011;5143;42.584;23.164;2022-07-29T08:09:34;5.82;;;4.22;;
10201;SDS011;5143;42.584;23.164;2022-07-29T08:12:03;6.57;;;4.30;;
10201;SDS011;5143;42.584;23.164;2022-07-29T08:14:31;5.28;;;3.88;;
10201;SDS011;5143;42.584;23.164;2022-07-29T08:16:58;10.60;;;4.13;;
10201;SDS011;5143;42.584;23.164;2022-07-29T08:19:25;4.88;;;4.18;;
10201;SDS011;5143;42.584;23.164;2022-07-29T08:21:52;5.45;;;4.00;;
10201;SDS011;5143;42.584;23.164;2022-07-29T08:24:19;7.53;;;3.88;;
10201;SDS011;5143;42.584;23.164;2022-07-29T08:27:05;7.70;;;4.13;;
10201;SDS011;5143;42.584;23.164;2022-07-29T08:29:32;4.47;;;3.97;;
10201;SDS011;5143;42.584;23.164;2022-07-29T08:31:58;5.38;;;3.75;;
10201;SDS011;5143;42.584;23.164;2022-07-29T08:34:25;10.77;;;4.10;;
10201;SDS011;5143;42.584;23.164;2022-07-29T08:36:53;9.75;;;4.82;;
10201;SDS011;5143;42.584;23.164;2022-07-29T08:39:20;10.88;;;4.80;;
10201;SDS011;5143;42.584;23.164;2022-07-29T08:41:47;7.03;;;4.07;;
10201;SDS011;5143;42.584;23.164;2022-07-29T08:44:17;8.60;;;4.13;;
10201;SDS011;5143;42.584;23.164;2022-07-29T08:46:44;6.28;;;3.97;;
10201;SDS011;5143;42.584;23.164;2022-07-29T08:49:11;7.40;;;4.32;;
10201;SDS011;5143;42.584;23.164;2022-07-29T08:51:38;7.97;;;4.00;;
10201;SDS011;5143;42.584;23.164;2022-07-29T08:54:06;9.63;;;4.40;;
10201;SDS011;5143;42.584;23.164;2022-07-29T08:56:34;7.53;;;4.32;;
10201;SDS011;5143;42.584;23.164;2022-07-29T08:59:02;5.90;;;3.77;;
10201;SDS011;5143;42.584;23.164;2022-07-29T09:01:32;4.53;;;3.60;;
10201;SDS011;5143;42.584;23.164;2022-07-29T09:04:01;6.50;;;3.73;;
10201;SDS011;5143;42.584;23.164;2022-07-29T09:06:31;6.70;;;4.00;;
10201;SDS011;5143;42.584;23.164;2022-07-29T09:09:00;4.90;;;4.03;;
10201;SDS011;5143;42.584;23.164;2022-07-29T09:11:27;5.13;;;3.80;;
10201;SDS011;5143;42.584;23.164;2022-07-29T09:13:54;10.50;;;3.90;;
10201;SDS011;5143;42.584;23.164;2022-07-29T09:16:21;5.35;;;4.05;;
10201;SDS011;5143;42.584;23.164;2022-07-29T09:18:49;7.27;;;4.17;;
10201;SDS011;5143;42.584;23.164;2022-07-29T09:21:16;9.00;;;3.85;;
10201;SDS011;5143;42.584;23.164;2022-07-29T09:24:02;4.65;;;3.72;;
10201;SDS011;5143;42.584;23.164;2022-07-29T09:26:34;6.18;;;3.70;;
10201;SDS011;5143;42.584;23.164;2022-07-29T09:29:10;4.33;;;3.70;;
10201;SDS011;5143;42.584;23.164;2022-07-29T09:31:38;4.70;;;3.90;;
10201;SDS011;5143;42.584;23.164;2022-07-29T09:34:08;10.27;;;4.03;;
10201;SDS011;5143;42.584;23.164;2022-07-29T09:36:39;6.03;;;3.77;;
10201;SDS011;5143;42.584;23.164;2022-07-29T09:39:07;4.40;;;3.67;;
10201;SDS011;5143;42.584;23.164;2022-07-29T09:41:46;4.40;;;3.60;;
10201;SDS011;5143;42.584;23.164;2022-07-29T09:44:14;4.30;;;3.40;;
10201;SDS011;5143;42.584;23.164;2022-07-29T09:46:52;6.97;;;3.70;;
10201;SDS011;5143;42.584;23.164;2022-07-29T09:49:21;6.07;;;3.90;;
10201;SDS011;5143;42.584;23.164;2022-07-29T09:51:58;5.67;;;3.97;;
10201;SDS011;5143;42.584;23.164;2022-07-29T09:54:26;5.68;;;3.70;;
10201;SDS011;5143;42.584;23.164;2022-07-29T09:56:54;5.55;;;3.97;;
10201;SDS011;5143;42.584;23.164;2022-07-29T09:59:21;5.97;;;4.20;;
10201;SDS011;5143;42.584;23.164;2022-07-29T10:01:51;9.70;;;4.30;;
10201;SDS011;5143;42.584;23.164;2022-07-29T10:04:18;5.57;;;3.70;;
10201;SDS011;5143;42.584;23.164;2022-07-29T10:06:56;6.57;;;4.25;;
10201;SDS011;5143;42.584;23.164;2022-07-29T10:09:24;6.00;;;4.57;;
10201;SDS011;5143;42.584;23.164;2022-07-29T10:12:07;8.05;;;4.38;;
10201;SDS011;5143;42.584;23.164;2022-07-29T10:14:36;6.78;;;4.10;;
10201;SDS011;5143;42.584;23.164;2022-07-29T10:17:04;7.18;;;4.35;;
10201;SDS011;5143;42.584;23.164;2022-07-29T10:19:32;10.25;;;4.50;;
10201;SDS011;5143;42.584;23.164;2022-07-29T10:22:02;9.32;;;4.28;;
10201;SDS011;5143;42.584;23.164;2022-07-29T10:24:30;6.45;;;4.25;;
10201;SDS011;5143;42.584;23.164;2022-07-29T10:26:59;6.30;;;3.95;;
10201;SDS011;5143;42.584;23.164;2022-07-29T10:29:27;5.00;;;4.50;;
10201;SDS011;5143;42.584;23.164;2022-07-29T10:35:09;10.13;;;5.32;;
10201;SDS011;5143;42.584;23.164;2022-07-29T10:37:49;5.88;;;4.65;;
10201;SDS011;5143;42.584;23.164;2022-07-29T10:40:26;6.43;;;4.68;;
10201;SDS011;5143;42.584;23.164;2022-07-29T10:43:18;4.85;;;4.45;;
10201;SDS011;5143;42.584;23.164;2022-07-29T10:45:47;5.72;;;4.85;;
10201;SDS011;5143;42.584;23.164;2022-07-29T10:48:15;4.78;;;4.28;;
10201;SDS011;5143;42.584;23.164;2022-07-29T10:50:51;6.80;;;5.32;;
10201;SDS011;5143;42.584;23.164;2022-07-29T10:53:20;7.65;;;4.88;;
10201;SDS011;5143;42.584;23.164;2022-07-29T10:55:48;5.40;;;4.85;;
10201;SDS011;5143;42.584;23.164;2022-07-29T10:58:17;5.32;;;4.68;;
10201;SDS011;5143;42.584;23.164;2022-07-29T11:00:45;5.68;;;4.88;;
10201;SDS011;5143;42.584;23.164;2022-07-29T11:06:17;8.07;;;5.47;;
10201;SDS011;5143;42.584;23.164;2022-07-29T11:08:45;9.38;;;5.80;;
10201;SDS011;5143;42.584;23.164;2022-07-29T11:11:42;6.35;;;5.72;;
10201;SDS011;5143;42.584;23.164;2022-07-29T11:14:09;6.53;;;5.63;;
10201;SDS011;5143;42.584;23.164;2022-07-29T11:19:26;5.70;;;5.15;;
10201;SDS011;5143;42.584;23.164;2022-07-29T11:21:52;6.20;;;5.47;;
10201;SDS011;5143;42.584;23.164;2022-07-29T11:24:21;6.82;;;5.63;;
10201;SDS011;5143;42.584;23.164;2022-07-29T11:27:12;7.93;;;5.78;;
10201;SDS011;5143;42.584;23.164;2022-07-29T11:29:48;7.53;;;5.75;;
10201;SDS011;5143;42.584;23.164;2022-07-29T11:32:17;7.30;;;5.45;;
10201;SDS011;5143;42.584;23.164;2022-07-29T11:34:45;8.23;;;5.40;;
10201;SDS011;5143;42.584;23.164;2022-07-29T11:37:14;9.45;;;5.53;;
10201;SDS011;5143;42.584;23.164;2022-07-29T11:42:43;7.78;;;5.13;;
10201;SDS011;5143;42.584;23.164;2022-07-29T11:45:11;11.90;;;6.13;;
10201;SDS011;5143;42.584;23.164;2022-07-29T11:47:41;6.60;;;5.10;;
10201;SDS011;5143;42.584;23.164;2022-07-29T11:50:15;9.18;;;5.20;;
10201;SDS011;5143;42.584;23.164;2022-07-29T11:52:43;7.18;;;5.03;;
10201;SDS011;5143;42.584;23.164;2022-07-29T11:55:12;6.07;;;5.35;;
10201;SDS011;5143;42.584;23.164;2022-07-29T11:57:49;9.15;;;5.90;;
10201;SDS011;5143;42.584;23.164;2022-07-29T12:00:21;5.75;;;5.22;;
10201;SDS011;5143;42.584;23.164;2022-07-29T12:02:50;11.25;;;5.47;;
10201;SDS011;5143;42.584;23.164;2022-07-29T12:05:17;5.68;;;5.15;;
10201;SDS011;5143;42.584;23.164;2022-07-29T12:07:46;6.93;;;5.30;;
10201;SDS011;5143;42.584;23.164;2022-07-29T12:10:13;9.70;;;5.97;;
10201;SDS011;5143;42.584;23.164;2022-07-29T12:12:40;8.95;;;5.70;;
10201;SDS011;5143;42.584;23.164;2022-07-29T12:15:12;9.23;;;5.38;;
10201;SDS011;5143;42.584;23.164;2022-07-29T12:17:42;9.95;;;5.53;;
10201;SDS011;5143;42.584;23.164;2022-07-29T12:20:09;6.28;;;4.90;;
10201;SDS011;5143;42.584;23.164;2022-07-29T12:22:38;6.65;;;5.18;;
10201;SDS011;5143;42.584;23.164;2022-07-29T12:25:10;5.90;;;5.10;;
10201;SDS011;5143;42.584;23.164;2022-07-29T12:27:40;7.72;;;5.38;;
10201;SDS011;5143;42.584;23.164;2022-07-29T12:30:08;6.40;;;4.80;;
10201;SDS011;5143;42.584;23.164;2022-07-29T12:32:38;9.10;;;5.45;;
10201;SDS011;5143;42.584;23.164;2022-07-29T12:35:07;6.20;;;5.00;;
10201;SDS011;5143;42.584;23.164;2022-07-29T12:37:36;8.70;;;4.90;;
10201;SDS011;5143;42.584;23.164;2022-07-29T12:40:05;11.40;;;5.10;;
10201;SDS011;5143;42.584;23.164;2022-07-29T12:42:33;7.68;;;5.45;;
10201;SDS011;5143;42.584;23.164;2022-07-29T12:45:01;8.98;;;5.22;;
10201;SDS011;5143;42.584;23.164;2022-07-29T12:47:28;7.15;;;5.32;;
10201;SDS011;5143;42.584;23.164;2022-07-29T12:50:08;6.07;;;5.47;;
10201;SDS011;5143;42.584;23.164;2022-07-29T12:52:36;8.27;;;5.80;;
10201;SDS011;5143;42.584;23.164;2022-07-29T12:55:03;9.13;;;5.53;;
10201;SDS011;5143;42.584;23.164;2022-07-29T12:57:31;9.02;;;4.75;;
10201;SDS011;5143;42.584;23.164;2022-07-29T12:59:59;13.98;;;5.00;;
10201;SDS011;5143;42.584;23.164;2022-07-29T13:02:31;6.43;;;4.50;;
10201;SDS011;5143;42.584;23.164;2022-07-29T13:04:59;10.95;;;4.53;;
10201;SDS011;5143;42.584;23.164;2022-07-29T13:07:29;6.07;;;4.97;;
10201;SDS011;5143;42.584;23.164;2022-07-29T13:10:09;6.28;;;4.70;;
10201;SDS011;5143;42.584;23.164;2022-07-29T13:12:38;5.13;;;4.03;;
10201;SDS011;5143;42.584;23.164;2022-07-29T13:15:12;5.82;;;4.43;;
10201;SDS011;5143;42.584;23.164;2022-07-29T13:17:41;4.30;;;3.90;;
10201;SDS011;5143;42.584;23.164;2022-07-29T13:20:09;5.70;;;3.90;;
10201;SDS011;5143;42.584;23.164;2022-07-29T13:22:41;6.43;;;4.03;;
10201;SDS011;5143;42.584;23.164;2022-07-29T13:25:08;5.55;;;4.30;;
10201;SDS011;5143;42.584;23.164;2022-07-29T13:27:37;6.20;;;4.20;;
10201;SDS011;5143;42.584;23.164;2022-07-29T13:30:05;4.63;;;4.10;;
10201;SDS011;5143;42.584;23.164;2022-07-29T13:32:34;4.50;;;4.10;;
10201;SDS011;5143;42.584;23.164;2022-07-29T13:35:04;6.20;;;4.18;;
10201;SDS011;5143;42.584;23.164;2022-07-29T13:37:32;4.32;;;3.45;;
10201;SDS011;5143;42.584;23.164;2022-07-29T13:40:01;4.28;;;3.88;;
10201;SDS011;5143;42.584;23.164;2022-07-29T13:42:29;4.82;;;3.72;;
10201;SDS011;5143;42.584;23.164;2022-07-29T13:44:55;4.28;;;3.80;;
10201;SDS011;5143;42.584;23.164;2022-07-29T13:47:22;4.40;;;3.63;;
10201;SDS011;5143;42.584;23.164;2022-07-29T13:49:49;5.05;;;3.83;;
10201;SDS011;5143;42.584;23.164;2022-07-29T13:52:16;4.18;;;3.75;;
10201;SDS011;5143;42.584;23.164;2022-07-29T13:54:43;6.30;;;3.83;;
10201;SDS011;5143;42.584;23.164;2022-07-29T13:57:12;4.35;;;3.95;;
10201;SDS011;5143;42.584;23.164;2022-07-29T13:59:39;5.32;;;4.13;;
10201;SDS011;5143;42.584;23.164;2022-07-29T14:02:07;4.82;;;4.07;;
10201;SDS011;5143;42.584;23.164;2022-07-29T14:04:35;4.05;;;3.70;;
10201;SDS011;5143;42.584;23.164;2022-07-29T14:07:02;5.55;;;3.85;;
10201;SDS011;5143;42.584;23.164;2022-07-29T14:09:29;4.57;;;3.95;;
10201;SDS011;5143;42.584;23.164;2022-07-29T14:11:56;6.28;;;4.50;;
10201;SDS011;5143;42.584;23.164;2022-07-29T14:14:24;5.55;;;4.20;;
10201;SDS011;5143;42.584;23.164;2022-07-29T14:16:51;6.88;;;4.07;;
10201;SDS011;5143;42.584;23.164;2022-07-29T14:19:17;7.32;;;4.10;;
10201;SDS011;5143;42.584;23.164;2022-07-29T14:21:44;4.45;;;4.05;;
10201;SDS011;5143;42.584;23.164;2022-07-29T14:24:11;6.35;;;4.50;;
10201;SDS011;5143;42.584;23.164;2022-07-29T14:26:38;7.07;;;4.03;;
10201;SDS011;5143;42.584;23.164;2022-07-29T14:29:05;6.28;;;4.22;;
10201;SDS011;5143;42.584;23.164;2022-07-29T14:31:33;7.63;;;4.22;;
10201;SDS011;5143;42.584;23.164;2022-07-29T14:34:00;5.97;;;4.18;;
10201;SDS011;5143;42.584;23.164;2022-07-29T14:36:27;5.90;;;3.95;;
10201;SDS011;5143;42.584;23.164;2022-07-29T14:38:54;4.72;;;3.72;;
10201;SDS011;5143;42.584;23.164;2022-07-29T14:41:21;4.10;;;3.80;;
10201;SDS011;5143;42.584;23.164;2022-07-29T14:43:47;6.93;;;3.65;;
10201;SDS011;5143;42.584;23.164;2022-07-29T14:46:14;4.47;;;4.07;;
10201;SDS011;5143;42.584;23.164;2022-07-29T14:48:42;5.18;;;3.92;;
10201;SDS011;5143;42.584;23.164;2022-07-29T14:51:09;4.78;;;4.03;;
10201;SDS011;5143;42.584;23.164;2022-07-29T14:53:36;6.63;;;4.20;;
10201;SDS011;5143;42.584;23.164;2022-07-29T14:56:04;5.07;;;4.22;;
10201;SDS011;5143;42.584;23.164;2022-07-29T14:58:30;4.68;;;3.83;;
10201;SDS011;5143;42.584;23.164;2022-07-29T15:00:57;4.40;;;4.00;;
10201;SDS011;5143;42.584;23.164;2022-07-29T15:03:24;8.20;;;4.10;;
10201;SDS011;5143;42.584;23.164;2022-07-29T15:05:52;4.60;;;4.20;;